地図

経路データ

SID SEASON NUMBER BASIN SUBBASIN NAME ISO_TIME NATURE LAT LON WMO_WIND WMO_PRES WMO_AGENCY TRACK_TYPE DIST2LAND LANDFALL IFLAG USA_AGENCY USA_ATCF_ID USA_LAT USA_LON USA_RECORD USA_STATUS USA_WIND USA_PRES USA_SSHS USA_R34_NE USA_R34_SE USA_R34_SW USA_R34_NW USA_R50_NE USA_R50_SE USA_R50_SW USA_R50_NW USA_R64_NE USA_R64_SE USA_R64_SW USA_R64_NW USA_POCI USA_ROCI USA_RMW USA_EYE TOKYO_LAT TOKYO_LON TOKYO_GRADE TOKYO_WIND TOKYO_PRES TOKYO_R50_DIR TOKYO_R50_LONG TOKYO_R50_SHORT TOKYO_R30_DIR TOKYO_R30_LONG TOKYO_R30_SHORT TOKYO_LAND CMA_LAT CMA_LON CMA_CAT CMA_WIND CMA_PRES HKO_LAT HKO_LON HKO_CAT HKO_WIND HKO_PRES NEWDELHI_LAT NEWDELHI_LON NEWDELHI_GRADE NEWDELHI_WIND NEWDELHI_PRES NEWDELHI_CI NEWDELHI_DP NEWDELHI_POCI REUNION_LAT REUNION_LON REUNION_TYPE REUNION_WIND REUNION_PRES REUNION_TNUM REUNION_CI REUNION_RMW REUNION_R34_NE REUNION_R34_SE REUNION_R34_SW REUNION_R34_NW REUNION_R50_NE REUNION_R50_SE REUNION_R50_SW REUNION_R50_NW REUNION_R64_NE REUNION_R64_SE REUNION_R64_SW REUNION_R64_NW BOM_LAT BOM_LON BOM_TYPE BOM_WIND BOM_PRES BOM_TNUM BOM_CI BOM_RMW BOM_R34_NE BOM_R34_SE BOM_R34_SW BOM_R34_NW BOM_R50_NE BOM_R50_SE BOM_R50_SW BOM_R50_NW BOM_R64_NE BOM_R64_SE BOM_R64_SW BOM_R64_NW BOM_ROCI BOM_POCI BOM_EYE BOM_POS_METHOD BOM_PRES_METHOD NADI_LAT NADI_LON NADI_CAT NADI_WIND NADI_PRES WELLINGTON_LAT WELLINGTON_LON WELLINGTON_WIND WELLINGTON_PRES DS824_LAT DS824_LON DS824_STAGE DS824_WIND DS824_PRES TD9636_LAT TD9636_LON TD9636_STAGE TD9636_WIND TD9636_PRES TD9635_LAT TD9635_LON TD9635_WIND TD9635_PRES TD9635_ROCI NEUMANN_LAT NEUMANN_LON NEUMANN_CLASS NEUMANN_WIND NEUMANN_PRES MLC_LAT MLC_LON MLC_CLASS MLC_WIND MLC_PRES USA_GUST BOM_GUST BOM_GUST_PER REUNION_GUST REUNION_GUST_PER USA_SEAHGT USA_SEARAD_NE USA_SEARAD_SE USA_SEARAD_SW USA_SEARAD_NW STORM_SPEED STORM_DIR
1980199N31284 1980 49 NA NA NOT_NAMED 1980-07-17 00:00:00 TS 30.5000 -76.5000 20 hurdat_atl main 390 379 O_____________ hurdat_atl AL011980 30.5000 -76.5000 TD 20 -1 7 243
1980199N31284 1980 49 NA NA NOT_NAMED 1980-07-17 03:00:00 TS 30.3428 -76.8528 main 382 371 P_____________ AL011980 30.3428 -76.8528 TD 22 -1 7 244
1980199N31284 1980 49 NA NA NOT_NAMED 1980-07-17 06:00:00 TS 30.2000 -77.2000 25 hurdat_atl main 371 341 O_____________ hurdat_atl AL011980 30.2000 -77.2000 TD 25 -1 7 247
1980199N31284 1980 49 NA NA NOT_NAMED 1980-07-17 09:00:00 TS 30.0845 -77.5549 main 332 294 P_____________ AL011980 30.0845 -77.5549 TD 25 -1 7 254
1980199N31284 1980 49 NA NA NOT_NAMED 1980-07-17 12:00:00 TS 30.0000 -78.0000 25 hurdat_atl main 294 239 O_____________ hurdat_atl AL011980 30.0000 -78.0000 TD 25 -1 10 261
1980199N31284 1980 49 NA NA NOT_NAMED 1980-07-17 15:00:00 TS 29.9431 -78.6424 main 239 178 P_____________ AL011980 29.9431 -78.6424 TD 25 -1 11 265
1980199N31284 1980 49 NA NA NOT_NAMED 1980-07-17 18:00:00 TS 29.9000 -79.3000 25 hurdat_atl main 178 137 O_____________ hurdat_atl AL011980 29.9000 -79.3000 TD 25 -1 10 265
1980199N31284 1980 49 NA NA NOT_NAMED 1980-07-17 21:00:00 TS 29.8645 -79.7797 main 137 97 P_____________ AL011980 29.8645 -79.7797 TD 25 -1 8 263
1980199N31284 1980 49 NA NA NOT_NAMED 1980-07-18 00:00:00 TS 29.8000 -80.2000 25 hurdat_atl main 97 58 O_____________ hurdat_atl AL011980 29.8000 -80.2000 TD 25 -1 8 254
1980199N31284 1980 49 NA NA NOT_NAMED 1980-07-18 03:00:00 TS 29.6423 -80.6504 main 44 9 P_____________ AL011980 29.6423 -80.6504 TD 25 -1 8 249
1980199N31284 1980 49 NA NA NOT_NAMED 1980-07-18 06:00:00 TS 29.5000 -81.1000 25 hurdat_atl main 9 0 O_____________ hurdat_atl AL011980 29.5000 -81.1000 TD 25 -1 8 259
1980199N31284 1980 49 NA NA NOT_NAMED 1980-07-18 09:00:00 TS 29.4848 -81.5421 main 0 0 P_____________ AL011980 29.4848 -81.5421 TD 22 -1 8 270
1980199N31284 1980 49 NA NA NOT_NAMED 1980-07-18 12:00:00 TS 29.5000 -82.0000 20 hurdat_atl main 0 0 O_____________ hurdat_atl AL011980 29.5000 -82.0000 TD 20 -1 8 268
1980199N31284 1980 49 NA NA NOT_NAMED 1980-07-18 15:00:00 TS 29.4499 -82.4927 main 0 0 P_____________ AL011980 29.4499 -82.4927 TD 20 -1 9 263
1980199N31284 1980 49 NA NA NOT_NAMED 1980-07-18 18:00:00 TS 29.4000 -83.0000 20 hurdat_atl main 0 0 O_____________ hurdat_atl AL011980 29.4000 -83.0000 TD 20 -1 9 266
1980199N31284 1980 49 NA GM NOT_NAMED 1980-07-18 21:00:00 TS 29.3850 -83.5225 main 14 14 P_____________ AL011980 29.3850 -83.5225 TD 20 -1 9 270
1980199N31284 1980 49 NA GM NOT_NAMED 1980-07-19 00:00:00 TS 29.4000 -84.0000 20 hurdat_atl main 59 55 O_____________ hurdat_atl AL011980 29.4000 -84.0000 TD 20 -1 7 275
1980199N31284 1980 49 NA GM NOT_NAMED 1980-07-19 03:00:00 TS 29.4419 -84.3425 main 55 29 P_____________ AL011980 29.4419 -84.3425 TD 20 -1 6 279
1980199N31284 1980 49 NA GM NOT_NAMED 1980-07-19 06:00:00 TS 29.5000 -84.7000 20 hurdat_atl main 29 22 O_____________ hurdat_atl AL011980 29.5000 -84.7000 TD 20 -1 8 278
1980199N31284 1980 49 NA GM NOT_NAMED 1980-07-19 09:00:00 TS 29.5505 -85.2575 main 11 11 P_____________ AL011980 29.5505 -85.2575 TD 22 -1 10 276
1980199N31284 1980 49 NA GM NOT_NAMED 1980-07-19 12:00:00 TS 29.6000 -85.8000 25 hurdat_atl main 40 40 O_____________ hurdat_atl AL011980 29.6000 -85.8000 TD 25 -1 8 277
1980199N31284 1980 49 NA GM NOT_NAMED 1980-07-19 15:00:00 TS 29.6496 -86.1376 main 67 62 P_____________ AL011980 29.6496 -86.1376 TD 25 -1 5 281
1980199N31284 1980 49 NA GM NOT_NAMED 1980-07-19 18:00:00 TS 29.7000 -86.4000 25 hurdat_atl main 72 72 O_____________ hurdat_atl AL011980 29.7000 -86.4000 TD 25 -1 5 282
1980199N31284 1980 49 NA GM NOT_NAMED 1980-07-19 21:00:00 TS 29.7498 -86.6851 main 78 59 P_____________ AL011980 29.7498 -86.6851 TD 25 -1 5 281
1980199N31284 1980 49 NA GM NOT_NAMED 1980-07-20 00:00:00 TS 29.8000 -87.0000 25 hurdat_atl main 59 55 O_____________ hurdat_atl AL011980 29.8000 -87.0000 TD 25 -1 6 279
1980199N31284 1980 49 NA GM NOT_NAMED 1980-07-20 03:00:00 TS 29.8501 -87.3925 main 44 38 P_____________ AL011980 29.8501 -87.3925 TD 25 -1 7 278
1980199N31284 1980 49 NA GM NOT_NAMED 1980-07-20 06:00:00 TS 29.9000 -87.8000 25 hurdat_atl main 38 33 O_____________ hurdat_atl AL011980 29.9000 -87.8000 TD 25 -1 7 277
1980199N31284 1980 49 NA GM NOT_NAMED 1980-07-20 09:00:00 TS 29.9273 -88.1578 main 38 33 P_____________ AL011980 29.9273 -88.1578 TD 25 -1 6 279
1980199N31284 1980 49 NA GM NOT_NAMED 1980-07-20 12:00:00 TS 30.0000 -88.5000 25 hurdat_atl main 33 14 O_____________ hurdat_atl AL011980 30.0000 -88.5000 TD 25 -1 6 293
1980199N31284 1980 49 NA GM NOT_NAMED 1980-07-20 15:00:00 TS 30.1773 -88.8425 main 14 0 P_____________ AL011980 30.1773 -88.8425 TD 22 -1 7 303
1980199N31284 1980 49 NA NA NOT_NAMED 1980-07-20 18:00:00 TS 30.4000 -89.2000 20 hurdat_atl main 0 0 O_____________ hurdat_atl AL011980 30.4000 -89.2000 TD 20 -1 8 304
1980199N31284 1980 49 NA NA NOT_NAMED 1980-07-20 21:00:00 TS 30.6078 -89.5898 main 0 0 P_____________ AL011980 30.6078 -89.5898 TD -1 8 300
1980199N31284 1980 49 NA NA NOT_NAMED 1980-07-21 00:00:00 TS 30.8000 -90.0000 hurdat_atl main 0 O_____________ hurdat_atl AL011980 30.8000 -90.0000 TD -1 8 299

IBTrACS Databaseについて

本データベースは、米国NOAAが公開する1842年以降の世界の熱帯低気圧のベストトラックデータアーカイブInternational Best Track Archive for Climate Stewardship (IBTrACS)を、ウェブで閲覧しやすい形式に変換したものです。

最終更新日:2021-12-03